createdAt,value
2023-03-01T00:02:04.564Z,-7.02
2023-03-01T00:04:10.390Z,-6.89
2023-03-01T00:06:15.777Z,-6.76
2023-03-01T00:08:21.187Z,-6.66
2023-03-01T00:10:27.085Z,-6.63
2023-03-01T00:12:33.039Z,-6.61
2023-03-01T00:14:38.506Z,-6.59
2023-03-01T00:16:44.006Z,-6.63
2023-03-01T00:18:49.867Z,-6.63
2023-03-01T00:20:55.802Z,-6.6
2023-03-01T00:23:01.189Z,-6.58
2023-03-01T00:25:06.923Z,-6.45
2023-03-01T00:27:12.477Z,-6.3
2023-03-01T00:29:17.717Z,-6.25
2023-03-01T00:31:22.963Z,-6.22
2023-03-01T00:33:28.190Z,-6.27
2023-03-01T00:35:33.521Z,-6.25
2023-03-01T00:37:39.168Z,-6.26
2023-03-01T00:39:44.300Z,-6.25
2023-03-01T00:41:49.810Z,-6.27
2023-03-01T00:43:55.181Z,-6.28
2023-03-01T00:46:00.621Z,-6.31
2023-03-01T00:48:06.197Z,-6.38
2023-03-01T00:50:11.363Z,-6.4
2023-03-01T00:52:16.529Z,-6.4
2023-03-01T00:54:22.158Z,-6.42
2023-03-01T00:56:27.327Z,-6.42
2023-03-01T00:58:34.565Z,-6.36
2023-03-01T01:00:40.350Z,-6.43
2023-03-01T01:02:45.771Z,-6.5
2023-03-01T01:04:51.705Z,-6.48
2023-03-01T01:06:56.893Z,-6.56
2023-03-01T01:09:02.157Z,-6.64
2023-03-01T01:11:07.998Z,-6.59
2023-03-01T01:13:13.627Z,-6.55
2023-03-01T01:15:19.139Z,-6.59
2023-03-01T01:17:24.276Z,-6.6
2023-03-01T01:19:29.763Z,-6.51
2023-03-01T01:21:35.918Z,-6.45
2023-03-01T01:23:41.134Z,-6.45
2023-03-01T01:25:46.719Z,-6.48
2023-03-01T01:27:52.028Z,-6.54
2023-03-01T01:29:57.509Z,-6.58
2023-03-01T01:32:02.970Z,-6.6
2023-03-01T01:34:08.619Z,-6.65
2023-03-01T01:36:13.954Z,-6.64
2023-03-01T01:38:19.284Z,-6.64
2023-03-01T01:40:24.823Z,-6.73
2023-03-01T01:42:30.294Z,-6.79
2023-03-01T01:44:35.765Z,-6.84
2023-03-01T01:46:41.242Z,-6.92
2023-03-01T01:48:47.038Z,-6.99
2023-03-01T01:50:52.393Z,-7.01
2023-03-01T01:52:57.652Z,-7
2023-03-01T01:55:02.974Z,-6.81
2023-03-01T01:57:08.224Z,-6.81
2023-03-01T01:59:13.343Z,-6.87
2023-03-01T02:01:18.718Z,-6.8
2023-03-01T02:03:24.047Z,-6.81
2023-03-01T02:05:29.851Z,-6.77
2023-03-01T02:07:35.187Z,-6.7
2023-03-01T02:09:40.581Z,-6.68
2023-03-01T02:11:46.221Z,-6.61
2023-03-01T02:13:51.962Z,-6.64
2023-03-01T02:15:57.397Z,-6.63
2023-03-01T02:18:02.756Z,-6.58
2023-03-01T02:20:08.201Z,-6.55
2023-03-01T02:22:13.249Z,-6.57
2023-03-01T02:24:20.023Z,-6.55
2023-03-01T02:26:25.619Z,-6.55
2023-03-01T02:28:31.553Z,-6.6
2023-03-01T02:30:37.380Z,-6.64
2023-03-01T02:32:42.492Z,-6.63
2023-03-01T02:34:48.195Z,-6.64
2023-03-01T02:36:53.776Z,-6.66
2023-03-01T02:38:59.002Z,-6.69
2023-03-01T02:41:04.109Z,-6.73
2023-03-01T02:43:09.325Z,-6.84
2023-03-01T02:45:14.466Z,-6.86
2023-03-01T02:47:19.701Z,-6.87
2023-03-01T02:49:24.807Z,-6.87
2023-03-01T02:51:30.181Z,-6.75
2023-03-01T02:53:35.539Z,-6.71
2023-03-01T02:55:40.870Z,-6.68
2023-03-01T02:57:46.151Z,-6.65
2023-03-01T02:59:51.518Z,-6.61
2023-03-01T03:01:56.645Z,-6.59
2023-03-01T03:04:01.977Z,-6.62
2023-03-01T03:06:07.446Z,-6.56
2023-03-01T03:08:12.649Z,-6.56
2023-03-01T03:10:18.194Z,-6.57
2023-03-01T03:12:23.577Z,-6.63
2023-03-01T03:14:28.865Z,-6.65
2023-03-01T03:16:34.534Z,-6.71
2023-03-01T03:18:40.081Z,-6.75
2023-03-01T03:20:45.237Z,-6.73
2023-03-01T03:22:50.488Z,-6.71
2023-03-01T03:24:55.864Z,-6.65
2023-03-01T03:27:01.467Z,-6.63
2023-03-01T03:29:06.826Z,-6.65
2023-03-01T03:31:12.299Z,-6.69
2023-03-01T03:33:17.750Z,-6.74
2023-03-01T03:35:23.210Z,-6.75
2023-03-01T03:37:28.738Z,-6.77
2023-03-01T03:39:34.441Z,-6.84
2023-03-01T03:41:39.990Z,-6.72
2023-03-01T03:43:45.102Z,-6.62
2023-03-01T03:45:50.522Z,-6.55
2023-03-01T03:47:56.021Z,-6.45
2023-03-01T03:50:01.621Z,-6.45
2023-03-01T03:52:07.361Z,-6.42
2023-03-01T03:54:12.928Z,-6.33
2023-03-01T03:56:18.671Z,-6.22
2023-03-01T03:58:23.983Z,-6.2
2023-03-01T04:00:29.174Z,-6.21
2023-03-01T04:02:34.590Z,-6.18
2023-03-01T04:04:40.253Z,-6.12
2023-03-01T04:06:45.647Z,-6.11
2023-03-01T04:08:51.511Z,-6.04
2023-03-01T04:10:56.823Z,-6.08
2023-03-01T04:13:02.332Z,-6.11
2023-03-01T04:15:07.669Z,-6.07
2023-03-01T04:17:13.233Z,-6.04
2023-03-01T04:19:19.045Z,-6.02
2023-03-01T04:21:24.608Z,-6.04
2023-03-01T04:23:29.900Z,-6.03
2023-03-01T04:25:35.420Z,-6.07
2023-03-01T04:27:40.938Z,-6.11
2023-03-01T04:29:46.373Z,-6.08
2023-03-01T04:31:52.917Z,-6.08
2023-03-01T04:33:58.660Z,-6.05
2023-03-01T04:36:04.063Z,-6.08
2023-03-01T04:38:10.163Z,-6.08
2023-03-01T04:40:15.390Z,-6.09
2023-03-01T04:42:21.041Z,-6.08
2023-03-01T04:44:26.464Z,-6.1
2023-03-01T04:46:32.230Z,-6.11
2023-03-01T04:48:38.409Z,-6.06
2023-03-01T04:50:43.924Z,-5.99
2023-03-01T04:52:49.600Z,-6.01
2023-03-01T04:54:55.186Z,-6.1
2023-03-01T04:57:00.554Z,-6.09
2023-03-01T04:59:06.430Z,-6.1
2023-03-01T05:01:11.747Z,-5.99
2023-03-01T05:03:17.192Z,-6.06
2023-03-01T05:05:22.474Z,-6.05
2023-03-01T05:07:28.041Z,-5.99
2023-03-01T05:09:33.593Z,-5.96
2023-03-01T05:11:38.974Z,-5.91
2023-03-01T05:13:44.360Z,-5.92
2023-03-01T05:15:49.825Z,-5.84
2023-03-01T05:17:55.198Z,-5.69
2023-03-01T05:20:00.587Z,-5.54
2023-03-01T05:22:05.997Z,-5.45
2023-03-01T05:24:11.391Z,-5.37
2023-03-01T05:26:27.723Z,-5.4
2023-03-01T05:28:33.585Z,-5.33
2023-03-01T05:30:38.795Z,-5.26
2023-03-01T05:32:44.162Z,-5.23
2023-03-01T05:34:49.727Z,-5.31
2023-03-01T05:36:55.099Z,-5.3
2023-03-01T05:39:01.515Z,-5.34
2023-03-01T05:41:06.654Z,-5.37
2023-03-01T05:43:11.956Z,-5.32
2023-03-01T05:45:17.305Z,-5.26
2023-03-01T05:47:23.828Z,-5.32
2023-03-01T05:49:29.221Z,-5.37
2023-03-01T05:51:34.863Z,-5.29
2023-03-01T05:53:40.650Z,-5.26
2023-03-01T05:55:46.284Z,-5.2
2023-03-01T05:57:51.806Z,-5.08
2023-03-01T05:59:57.116Z,-4.97
2023-03-01T06:02:02.560Z,-4.95
2023-03-01T06:04:08.893Z,-4.95
2023-03-01T06:06:14.623Z,-4.92
2023-03-01T06:08:19.803Z,-4.86
2023-03-01T06:10:25.189Z,-4.8
2023-03-01T06:12:30.848Z,-4.77
2023-03-01T06:14:36.318Z,-4.71
2023-03-01T06:16:41.774Z,-4.63
2023-03-01T06:18:47.197Z,-4.56
2023-03-01T06:20:52.472Z,-4.53
2023-03-01T06:22:57.804Z,-4.46
2023-03-01T06:25:03.222Z,-4.37
2023-03-01T06:27:08.981Z,-4.32
2023-03-01T06:29:14.134Z,-4.25
2023-03-01T06:31:19.668Z,-4.19
2023-03-01T06:33:25.645Z,-4.12
2023-03-01T06:35:31.131Z,-4.07
2023-03-01T06:37:36.726Z,-3.97
2023-03-01T06:39:42.931Z,-3.87
2023-03-01T06:41:48.936Z,-3.76
2023-03-01T06:43:56.911Z,-3.64
2023-03-01T06:46:02.329Z,-3.55
2023-03-01T06:48:07.728Z,-3.49
2023-03-01T06:50:12.947Z,-3.39
2023-03-01T06:52:18.644Z,-3.32
2023-03-01T06:54:23.851Z,-3.27
2023-03-01T06:56:29.534Z,-3.19
2023-03-01T06:58:36.415Z,-3.06
2023-03-01T07:00:41.722Z,-2.96
2023-03-01T07:02:47.186Z,-2.88
2023-03-01T07:04:52.810Z,-2.77
2023-03-01T07:06:58.149Z,-2.7
2023-03-01T07:09:03.451Z,-2.58
2023-03-01T07:11:08.864Z,-2.44
2023-03-01T07:13:14.190Z,-2.36
2023-03-01T07:15:19.491Z,-2.32
2023-03-01T07:17:24.962Z,-2.19
2023-03-01T07:19:30.351Z,-1.99
2023-03-01T07:21:35.665Z,-1.81
2023-03-01T07:23:41.090Z,-1.63
2023-03-01T07:25:46.615Z,-1.64
2023-03-01T07:27:52.273Z,-1.55
2023-03-01T07:29:57.896Z,-1.42
2023-03-01T07:32:03.625Z,-1.28
2023-03-01T07:34:09.719Z,-1.22
2023-03-01T07:36:15.278Z,-1
2023-03-01T07:38:20.935Z,-0.9
2023-03-01T07:40:26.475Z,-0.76
2023-03-01T07:42:32.184Z,-0.61
2023-03-01T07:44:37.801Z,-0.49
2023-03-01T07:46:43.877Z,-0.37
2023-03-01T07:48:49.414Z,-0.27
2023-03-01T07:50:55.122Z,-0.11
2023-03-01T07:53:00.519Z,0.04
2023-03-01T07:55:06.368Z,0.17
2023-03-01T07:57:11.782Z,0.22
2023-03-01T07:59:17.468Z,0.26
2023-03-01T08:01:22.954Z,0.35
2023-03-01T08:03:28.456Z,0.42
2023-03-01T08:05:33.896Z,0.47
2023-03-01T08:07:39.369Z,0.53
2023-03-01T08:09:45.046Z,0.6
2023-03-01T08:11:50.621Z,0.72
2023-03-01T08:13:57.577Z,0.78
2023-03-01T08:16:03.437Z,0.87
2023-03-01T08:18:09.247Z,1.1
2023-03-01T08:20:14.980Z,1.28
2023-03-01T08:22:23.054Z,1.38
2023-03-01T08:24:28.521Z,1.52
2023-03-01T08:26:34.646Z,1.75
2023-03-01T08:28:40.110Z,1.84
2023-03-01T08:30:45.595Z,1.89
2023-03-01T08:32:51.439Z,1.97
2023-03-01T08:34:57.552Z,1.99
2023-03-01T08:37:02.963Z,1.93
2023-03-01T08:39:08.569Z,2.02
2023-03-01T08:41:14.104Z,2.15
2023-03-01T08:43:19.619Z,2.29
2023-03-01T08:45:29.302Z,2.35
2023-03-01T08:47:34.800Z,2.46
2023-03-01T08:49:40.360Z,2.41
2023-03-01T08:51:45.556Z,2.49
2023-03-01T08:53:50.752Z,2.51
2023-03-01T08:55:56.303Z,2.57
2023-03-01T08:58:01.664Z,2.73
2023-03-01T09:00:07.074Z,2.89
2023-03-01T09:02:12.226Z,2.99
2023-03-01T09:04:17.891Z,3.17
2023-03-01T09:06:23.170Z,3.4
2023-03-01T09:08:28.456Z,3.63
2023-03-01T09:10:33.920Z,4.06
2023-03-01T09:12:39.377Z,4.46
2023-03-01T09:14:44.727Z,4.95
2023-03-01T09:16:50.235Z,4.72
2023-03-01T09:18:55.961Z,4.8
2023-03-01T09:21:01.109Z,5.11
2023-03-01T09:23:06.739Z,5.83
2023-03-01T09:25:12.111Z,6.21
2023-03-01T09:27:17.470Z,6.2
2023-03-01T09:29:23.192Z,6.34
2023-03-01T09:31:28.546Z,7.13
2023-03-01T09:33:33.763Z,6.41
2023-03-01T09:35:39.140Z,6.68
2023-03-01T09:37:44.360Z,6.96
2023-03-01T09:39:49.824Z,7.19
2023-03-01T09:41:55.233Z,7.26
2023-03-01T09:44:00.515Z,6.99
2023-03-01T09:46:05.866Z,6.66
2023-03-01T09:48:11.187Z,6.7
2023-03-01T09:50:16.596Z,7.22
2023-03-01T09:52:22.132Z,8.17
2023-03-01T09:54:27.378Z,8.02
2023-03-01T09:56:33.103Z,7.62
2023-03-01T09:58:38.630Z,7.47
2023-03-01T10:00:44.399Z,7.57
2023-03-01T10:02:50.151Z,7.8
2023-03-01T10:04:55.548Z,7.96
2023-03-01T10:07:01.302Z,7.49
2023-03-01T10:09:06.681Z,6.83
2023-03-01T10:11:12.189Z,6.96
2023-03-01T10:13:18.386Z,7.31
2023-03-01T10:15:23.933Z,6.87
2023-03-01T10:17:29.481Z,6.92
2023-03-01T10:19:34.838Z,7.1
2023-03-01T10:21:40.256Z,8.12
2023-03-01T10:23:45.756Z,7.93
2023-03-01T10:25:51.344Z,8.38
2023-03-01T10:27:56.831Z,9.11
2023-03-01T10:30:02.268Z,9.22
2023-03-01T10:32:07.664Z,8.44
2023-03-01T10:34:13.922Z,8.07
2023-03-01T10:36:19.116Z,8.04
2023-03-01T10:38:24.530Z,8.46
2023-03-01T10:40:29.828Z,8.23
2023-03-01T10:42:35.738Z,9.05
2023-03-01T10:44:41.445Z,9.58
2023-03-01T10:46:46.792Z,9.52
2023-03-01T10:48:52.107Z,9.72
2023-03-01T10:50:57.449Z,10.05
2023-03-01T10:53:02.697Z,9.26
2023-03-01T10:55:07.989Z,9.65
2023-03-01T10:57:13.286Z,9.1
2023-03-01T10:59:18.417Z,9.08
2023-03-01T11:01:23.778Z,9.33
2023-03-01T11:03:29.429Z,9.69
2023-03-01T11:05:34.847Z,9.29
2023-03-01T11:07:54.807Z,9.64
2023-03-01T11:10:00.256Z,9.3
2023-03-01T11:12:05.480Z,8.78
2023-03-01T11:14:23.770Z,8.69
2023-03-01T11:16:32.433Z,10.09
2023-03-01T11:18:47.348Z,10.06
2023-03-01T11:20:53.413Z,9.17
2023-03-01T11:22:58.662Z,9.46
2023-03-01T11:25:10.205Z,9.38
2023-03-01T11:27:16.076Z,9.77
2023-03-01T11:29:21.441Z,10.07
2023-03-01T11:31:26.751Z,9.92
2023-03-01T11:33:33.501Z,10.17
2023-03-01T11:35:38.891Z,11.49
2023-03-01T11:37:46.458Z,10.67
2023-03-01T11:39:51.981Z,11.52
2023-03-01T11:41:59.641Z,10.2
2023-03-01T11:44:22.320Z,9.17
2023-03-01T11:46:27.981Z,8.97
2023-03-01T11:48:47.383Z,10.14
2023-03-01T11:50:55.204Z,10.34
2023-03-01T11:53:00.872Z,10.65
2023-03-01T11:55:06.143Z,10.66
2023-03-01T11:57:11.608Z,10.88
2023-03-01T11:59:16.836Z,9.97
2023-03-01T12:01:22.602Z,9.23
2023-03-01T12:03:27.803Z,9.39
2023-03-01T12:05:33.194Z,10.07
2023-03-01T12:07:38.576Z,10.84
2023-03-01T12:09:43.946Z,10.47
2023-03-01T12:11:49.536Z,10.92
2023-03-01T12:13:55.357Z,10.55
2023-03-01T12:16:01.008Z,9.61
2023-03-01T12:18:07.320Z,9.03
2023-03-01T12:20:12.719Z,7.91
2023-03-01T12:22:18.700Z,7.32
2023-03-01T12:24:24.129Z,7.14
2023-03-01T12:26:29.304Z,7.01
2023-03-01T12:28:34.392Z,6.89
2023-03-01T12:30:39.603Z,6.7
2023-03-01T12:32:45.091Z,6.65
2023-03-01T12:34:50.672Z,6.93
2023-03-01T12:36:55.980Z,6.73
2023-03-01T12:39:01.244Z,6.63
2023-03-01T12:41:06.851Z,6.44
2023-03-01T12:43:12.661Z,6.38
2023-03-01T12:45:17.908Z,6.41
2023-03-01T12:47:23.231Z,6.42
2023-03-01T12:49:28.523Z,6.51
2023-03-01T12:51:33.810Z,6.47
2023-03-01T12:53:39.038Z,6.35
2023-03-01T12:55:44.525Z,6.28
2023-03-01T12:57:49.787Z,6.26
2023-03-01T12:59:55.139Z,6.24
2023-03-01T13:02:00.725Z,6.17
2023-03-01T13:04:06.263Z,6.21
2023-03-01T13:06:12.076Z,6.25
2023-03-01T13:08:17.493Z,6.25
2023-03-01T13:10:22.884Z,6.25
2023-03-01T13:12:28.293Z,6.13
2023-03-01T13:14:33.911Z,6.12
2023-03-01T13:16:39.462Z,6.05
2023-03-01T13:18:45.130Z,6.11
2023-03-01T13:20:50.603Z,6.19
2023-03-01T13:22:55.817Z,6.18
2023-03-01T13:25:01.355Z,6.06
2023-03-01T13:27:06.910Z,6.13
2023-03-01T13:29:12.609Z,6.13
2023-03-01T13:31:18.082Z,6
2023-03-01T13:33:23.674Z,5.99
2023-03-01T13:35:29.186Z,5.96
2023-03-01T13:37:34.564Z,5.94
2023-03-01T13:39:40.017Z,5.91
2023-03-01T13:41:45.465Z,5.9
2023-03-01T13:43:50.679Z,5.88
2023-03-01T13:45:56.643Z,5.89
2023-03-01T13:48:03.209Z,5.91
2023-03-01T13:50:08.739Z,5.8
2023-03-01T13:52:14.326Z,5.71
2023-03-01T13:54:19.706Z,5.6
2023-03-01T13:56:26.025Z,5.48
2023-03-01T13:58:32.260Z,5.41
2023-03-01T14:00:37.965Z,5.42
2023-03-01T14:02:43.676Z,5.37
2023-03-01T14:04:52.013Z,5.37
2023-03-01T14:06:58.274Z,5.33
2023-03-01T14:09:07.110Z,5.39
2023-03-01T14:11:13.025Z,5.46
2023-03-01T14:13:19.756Z,5.51
2023-03-01T14:15:25.531Z,5.45
2023-03-01T14:17:31.008Z,5.36
2023-03-01T14:19:36.616Z,5.31
2023-03-01T14:21:42.214Z,5.31
2023-03-01T14:23:47.941Z,5.31
2023-03-01T14:25:53.535Z,5.25
2023-03-01T14:27:59.337Z,5.3
2023-03-01T14:30:08.650Z,5.36
2023-03-01T14:32:14.627Z,5.33
2023-03-01T14:34:20.298Z,5.31
2023-03-01T14:36:25.892Z,5.37
2023-03-01T14:38:31.985Z,5.31
2023-03-01T14:40:37.357Z,5.27
2023-03-01T14:42:43.351Z,5.28
2023-03-01T14:44:48.949Z,5.31
2023-03-01T14:46:54.368Z,5.28
2023-03-01T14:49:00.384Z,5.34
2023-03-01T14:51:06.678Z,5.23
2023-03-01T14:53:11.906Z,5.15
2023-03-01T14:55:17.998Z,5.12
2023-03-01T14:57:23.962Z,5.1
2023-03-01T14:59:29.577Z,5.02
2023-03-01T15:01:34.877Z,4.98
2023-03-01T15:03:40.858Z,4.99
2023-03-01T15:05:48.833Z,4.93
2023-03-01T15:07:54.230Z,4.85
2023-03-01T15:09:59.932Z,4.78
2023-03-01T15:12:05.968Z,4.83
2023-03-01T15:14:11.613Z,4.89
2023-03-01T15:16:17.094Z,4.76
2023-03-01T15:18:23.065Z,4.69
2023-03-01T15:20:29.606Z,4.62
2023-03-01T15:22:35.094Z,4.47
2023-03-01T15:24:40.842Z,4.38
2023-03-01T15:26:46.971Z,4.28
2023-03-01T15:28:52.586Z,4.21
2023-03-01T15:30:58.046Z,4.13
2023-03-01T15:33:04.314Z,4.04
2023-03-01T15:35:10.348Z,3.88
2023-03-01T15:37:16.043Z,3.69
2023-03-01T15:39:22.208Z,3.48
2023-03-01T15:41:28.561Z,3.26
2023-03-01T15:43:34.728Z,3.03
2023-03-01T15:45:40.064Z,2.84
2023-03-01T15:47:47.114Z,2.68
2023-03-01T15:49:55.369Z,2.46
2023-03-01T15:52:01.730Z,2.28
2023-03-01T15:54:07.266Z,2.12
2023-03-01T15:56:15.101Z,1.92
2023-03-01T15:58:21.318Z,1.71
2023-03-01T16:00:27.218Z,1.5
2023-03-01T16:02:33.740Z,1.29
2023-03-01T16:04:40.345Z,1.08
2023-03-01T16:06:46.501Z,0.88
2023-03-01T16:08:52.173Z,0.73
2023-03-01T16:10:58.657Z,0.64
2023-03-01T16:13:05.048Z,0.57
2023-03-01T16:15:11.064Z,0.45
2023-03-01T16:17:24.751Z,0.31
2023-03-01T16:19:32.188Z,0.2
2023-03-01T16:21:39.038Z,0.11
2023-03-01T16:23:45.886Z,0.07
2023-03-01T16:25:51.769Z,-0.09
2023-03-01T16:27:59.230Z,-0.16
2023-03-01T16:30:06.751Z,-0.22
2023-03-01T16:32:13.018Z,-0.33
2023-03-01T16:34:20.217Z,-0.42
2023-03-01T16:36:28.117Z,-0.54
2023-03-01T16:38:34.379Z,-0.64
2023-03-01T16:40:42.822Z,-0.83
2023-03-01T16:42:49.836Z,-0.91
2023-03-01T16:44:59.926Z,-1.02
2023-03-01T16:47:27.639Z,-1.12
2023-03-01T16:49:36.788Z,-1.06
2023-03-01T16:51:42.756Z,-1.08
2023-03-01T16:53:49.464Z,-1.2
2023-03-01T16:55:55.766Z,-1.3
2023-03-01T16:58:01.939Z,-1.43
2023-03-01T17:00:10.257Z,-1.46
2023-03-01T17:02:19.920Z,-1.54
2023-03-01T17:04:30.300Z,-1.71
2023-03-01T17:06:38.988Z,-1.75
2023-03-01T17:08:45.870Z,-1.72
2023-03-01T17:10:53.327Z,-1.8
2023-03-01T17:13:01.226Z,-1.89
2023-03-01T17:15:09.370Z,-1.82
2023-03-01T17:17:17.248Z,-1.82
2023-03-01T17:19:24.331Z,-1.85
2023-03-01T17:21:32.821Z,-1.95
2023-03-01T17:23:40.418Z,-2.04
2023-03-01T17:25:51.551Z,-2.2
2023-03-01T17:28:00.083Z,-2.29
2023-03-01T17:30:07.444Z,-2.26
2023-03-01T17:32:19.616Z,-2.23
2023-03-01T17:34:30.352Z,-2.29
2023-03-01T17:36:38.679Z,-2.2
2023-03-01T17:38:47.734Z,-2.22
2023-03-01T17:40:55.093Z,-2.31
2023-03-01T17:43:04.190Z,-2.3
2023-03-01T17:45:10.989Z,-2.25
2023-03-01T17:47:17.743Z,-2.19
2023-03-01T17:49:24.679Z,-2.21
2023-03-01T17:51:33.204Z,-2.2
2023-03-01T17:53:46.047Z,-2.21
2023-03-01T17:55:54.108Z,-2.32
2023-03-01T17:58:02.226Z,-2.41
2023-03-01T18:00:09.156Z,-2.58
2023-03-01T18:02:16.209Z,-2.63
2023-03-01T18:04:26.425Z,-2.56
2023-03-01T18:06:34.447Z,-2.5
2023-03-01T18:08:48.640Z,-2.44
2023-03-01T18:10:57.596Z,-2.58
2023-03-01T18:13:07.179Z,-2.52
2023-03-01T18:15:14.109Z,-2.57
2023-03-01T18:17:25.452Z,-2.64
2023-03-01T18:19:34.514Z,-2.61
2023-03-01T18:21:42.123Z,-2.66
2023-03-01T18:23:55.008Z,-2.64
2023-03-01T18:26:02.986Z,-2.6
2023-03-01T18:28:12.700Z,-2.64
2023-03-01T18:30:20.938Z,-2.69
2023-03-01T18:32:29.660Z,-2.85
2023-03-01T18:34:40.607Z,-2.86
2023-03-01T18:37:06.204Z,-2.89
2023-03-01T18:39:17.261Z,-2.62
2023-03-01T18:41:25.227Z,-2.5
2023-03-01T18:43:33.214Z,-2.46
2023-03-01T18:45:41.245Z,-2.42
2023-03-01T18:47:50.950Z,-2.49
2023-03-01T18:50:00.721Z,-2.6
2023-03-01T18:52:09.099Z,-2.71
2023-03-01T18:54:17.381Z,-2.78
2023-03-01T18:56:25.421Z,-2.8
2023-03-01T18:58:39.588Z,-2.85
2023-03-01T19:00:48.196Z,-2.91
2023-03-01T19:02:58.581Z,-2.93
2023-03-01T19:05:12.274Z,-2.95
2023-03-01T19:07:23.771Z,-2.94
2023-03-01T19:09:32.643Z,-2.88
2023-03-01T19:11:43.241Z,-2.95
2023-03-01T19:13:52.607Z,-2.94
2023-03-01T19:16:06.974Z,-3
2023-03-01T19:18:18.613Z,-3.02
2023-03-01T19:20:27.431Z,-2.96
2023-03-01T19:22:37.164Z,-2.8
2023-03-01T19:24:44.654Z,-2.83
2023-03-01T19:26:54.726Z,-2.93
2023-03-01T19:29:08.785Z,-2.98
2023-03-01T19:31:20.489Z,-2.99
2023-03-01T19:33:29.542Z,-2.98
2023-03-01T19:35:40.050Z,-3.04
2023-03-01T19:37:50.328Z,-3.09
2023-03-01T19:39:59.194Z,-3.22
2023-03-01T19:42:08.197Z,-3.19
2023-03-01T19:44:17.991Z,-3.26
2023-03-01T19:46:27.960Z,-3.13
2023-03-01T19:48:39.635Z,-3.02
2023-03-01T19:50:55.276Z,-3.09
2023-03-01T19:53:06.140Z,-3.17
2023-03-01T19:55:17.201Z,-3.27
2023-03-01T19:57:32.515Z,-3.34
2023-03-01T19:59:42.597Z,-3.35
2023-03-01T20:01:54.260Z,-3.35
2023-03-01T20:04:09.648Z,-3.43
2023-03-01T20:06:20.560Z,-3.54
2023-03-01T20:08:31.245Z,-3.47
2023-03-01T20:10:39.669Z,-3.43
2023-03-01T20:12:49.039Z,-3.45
2023-03-01T20:15:10.093Z,-3.42
2023-03-01T20:17:19.533Z,-3.43
2023-03-01T20:19:28.986Z,-3.49
2023-03-01T20:21:37.769Z,-3.47
2023-03-01T20:23:49.905Z,-3.43
2023-03-01T20:25:59.353Z,-3.33
2023-03-01T20:28:10.523Z,-3.31
2023-03-01T20:30:19.180Z,-3.33
2023-03-01T20:32:28.357Z,-3.35
2023-03-01T20:34:39.171Z,-3.4
2023-03-01T20:36:48.560Z,-3.38
2023-03-01T20:38:59.097Z,-3.32
2023-03-01T20:41:08.865Z,-3.32
2023-03-01T20:43:20.028Z,-3.33
2023-03-01T20:45:28.309Z,-3.28
2023-03-01T20:47:36.622Z,-3.23
2023-03-01T20:49:45.903Z,-3.2
2023-03-01T20:51:53.954Z,-3.19
2023-03-01T20:54:03.665Z,-3.14
2023-03-01T20:56:15.714Z,-3.16
2023-03-01T20:58:27.898Z,-3.23
2023-03-01T21:00:35.531Z,-3.23
2023-03-01T21:02:44.226Z,-3.17
2023-03-01T21:04:51.693Z,-3.15
2023-03-01T21:07:04.741Z,-3.26
2023-03-01T21:09:13.427Z,-3.32
2023-03-01T21:11:22.568Z,-3.34
2023-03-01T21:13:33.455Z,-3.41
2023-03-01T21:15:40.000Z,-3.48
2023-03-01T21:17:46.800Z,-3.48
2023-03-01T21:19:53.054Z,-3.48
2023-03-01T21:21:59.403Z,-3.52
2023-03-01T21:24:06.123Z,-3.55
2023-03-01T21:26:13.673Z,-3.55
2023-03-01T21:28:20.971Z,-3.45
2023-03-01T21:30:27.537Z,-3.43
2023-03-01T21:32:33.736Z,-3.47
2023-03-01T21:34:40.890Z,-3.49
2023-03-01T21:36:47.520Z,-3.56
2023-03-01T21:38:53.801Z,-3.65
2023-03-01T21:40:59.555Z,-3.68
2023-03-01T21:43:07.101Z,-3.67
2023-03-01T21:45:12.749Z,-3.6
2023-03-01T21:47:19.425Z,-3.59
2023-03-01T21:49:26.390Z,-3.54
2023-03-01T21:51:32.032Z,-3.49
2023-03-01T21:53:37.864Z,-3.5
2023-03-01T21:55:43.680Z,-3.42
2023-03-01T21:57:50.460Z,-3.4
2023-03-01T21:59:56.516Z,-3.38
2023-03-01T22:02:02.515Z,-3.31
2023-03-01T22:04:08.141Z,-3.3
2023-03-01T22:06:13.674Z,-3.23
2023-03-01T22:08:21.723Z,-3.21
2023-03-01T22:10:27.333Z,-3.14
2023-03-01T22:12:32.962Z,-3.14
2023-03-01T22:14:38.714Z,-3.1
2023-03-01T22:16:44.401Z,-3.09
2023-03-01T22:18:50.379Z,-3.1
2023-03-01T22:20:55.961Z,-3.17
2023-03-01T22:23:01.479Z,-3.24
2023-03-01T22:25:06.784Z,-3.26
2023-03-01T22:27:12.144Z,-3.29
2023-03-01T22:29:17.963Z,-3.26
2023-03-01T22:31:23.642Z,-3.27
2023-03-01T22:33:29.491Z,-3.35
2023-03-01T22:35:34.917Z,-3.35
2023-03-01T22:37:41.033Z,-3.34
2023-03-01T22:39:46.417Z,-3.3
2023-03-01T22:41:51.937Z,-3.35
2023-03-01T22:43:58.635Z,-3.42
2023-03-01T22:46:04.161Z,-3.26
2023-03-01T22:48:10.203Z,-3.19
2023-03-01T22:50:15.415Z,-3.14
2023-03-01T22:52:20.767Z,-3.09
2023-03-01T22:54:25.983Z,-3.11
2023-03-01T22:56:32.210Z,-3.1
2023-03-01T22:58:38.925Z,-3.14
2023-03-01T23:00:44.206Z,-3.14
2023-03-01T23:02:49.748Z,-3.17
2023-03-01T23:04:55.648Z,-3.26
2023-03-01T23:07:01.290Z,-3.31
2023-03-01T23:09:06.857Z,-3.36
2023-03-01T23:11:14.401Z,-3.43
2023-03-01T23:13:34.513Z,-3.47
2023-03-01T23:15:39.914Z,-3.48
2023-03-01T23:17:45.641Z,-3.51
2023-03-01T23:19:50.990Z,-3.58
2023-03-01T23:21:56.633Z,-3.68
2023-03-01T23:24:02.688Z,-3.78
2023-03-01T23:26:08.457Z,-3.82
2023-03-01T23:28:14.196Z,-3.83
2023-03-01T23:30:19.476Z,-3.82
2023-03-01T23:32:25.009Z,-3.84
2023-03-01T23:34:30.688Z,-3.79
2023-03-01T23:36:36.290Z,-3.73
2023-03-01T23:38:41.667Z,-3.66
2023-03-01T23:40:47.073Z,-3.53
2023-03-01T23:42:52.916Z,-3.5
2023-03-01T23:44:58.788Z,-3.49
2023-03-01T23:47:04.172Z,-3.54
2023-03-01T23:49:09.297Z,-3.63
2023-03-01T23:51:14.743Z,-3.68
2023-03-01T23:53:21.589Z,-3.72
2023-03-01T23:55:26.911Z,-3.73
2023-03-01T23:57:32.355Z,-3.74
2023-03-01T23:59:37.782Z,-3.72
